Weather at Outer Skerries Airport

Public forecast

Using degrees Celsius for public forecast. Weather courtesy of forecast.io.

Closest aviation weather report (METAR) to Outer Skerries Airport

Report is more than 6 hours old.

Closest report is Scatsta Airport, 16.2 nm (30.0 km) W. Retrieved 2020/07/01 18:20 UTC (5 months ago):

EGPM 011820Z AUTO 35011KT 9999 BKN023/// BKN035/// 09/04 Q1006

Closest aviation forecast (TAF) to Outer Skerries Airport

Forecast is more than 12 hours old.

Closest forecast is Scatsta Airport, 16.2 nm (30.0 km) W. Retrieved 2013/04/29 03:39 UTC (8 years ago):

TAF TAF EGPM 290337Z 2903/2915 22005KT 9999 SCT030 PROB30 TEMPO 2903/2906 7000 SHRAGS BECMG 2906/2909 32015KT PROB40 TEMPO 2906/2915 6000 SHRA SHGS BKN012CB